sensor_id;sensor_type;location;lat;lon;timestamp;P1;durP1;ratioP1;P2;durP2;ratioP2
8488;SDS011;4281;45.772;12.852;2022-11-20T00:02:06;0.50;;;0.50;;
8488;SDS011;4281;45.772;12.852;2022-11-20T00:04:33;0.60;;;0.60;;
8488;SDS011;4281;45.772;12.852;2022-11-20T00:07:01;0.50;;;0.50;;
8488;SDS011;4281;45.772;12.852;2022-11-20T00:09:29;0.40;;;0.40;;
8488;SDS011;4281;45.772;12.852;2022-11-20T00:11:57;0.40;;;0.40;;
8488;SDS011;4281;45.772;12.852;2022-11-20T00:14:26;0.50;;;0.50;;
8488;SDS011;4281;45.772;12.852;2022-11-20T00:16:55;0.60;;;0.60;;
8488;SDS011;4281;45.772;12.852;2022-11-20T00:19:22;0.67;;;0.67;;
8488;SDS011;4281;45.772;12.852;2022-11-20T00:21:50;0.70;;;0.70;;
8488;SDS011;4281;45.772;12.852;2022-11-20T00:24:19;0.60;;;0.60;;
8488;SDS011;4281;45.772;12.852;2022-11-20T00:26:47;1.03;;;0.73;;
8488;SDS011;4281;45.772;12.852;2022-11-20T00:29:15;0.40;;;0.40;;
8488;SDS011;4281;45.772;12.852;2022-11-20T00:31:43;0.50;;;0.50;;
8488;SDS011;4281;45.772;12.852;2022-11-20T00:34:12;1.37;;;0.60;;
8488;SDS011;4281;45.772;12.852;2022-11-20T00:36:40;0.60;;;0.60;;
8488;SDS011;4281;45.772;12.852;2022-11-20T00:39:08;0.53;;;0.53;;
8488;SDS011;4281;45.772;12.852;2022-11-20T00:41:35;1.03;;;0.53;;
8488;SDS011;4281;45.772;12.852;2022-11-20T00:44:03;0.60;;;0.60;;
8488;SDS011;4281;45.772;12.852;2022-11-20T00:46:31;0.40;;;0.40;;
8488;SDS011;4281;45.772;12.852;2022-11-20T00:48:59;1.47;;;0.60;;
8488;SDS011;4281;45.772;12.852;2022-11-20T00:51:28;0.57;;;0.57;;
8488;SDS011;4281;45.772;12.852;2022-11-20T00:53:56;0.50;;;0.50;;
8488;SDS011;4281;45.772;12.852;2022-11-20T00:56:24;0.60;;;0.60;;
8488;SDS011;4281;45.772;12.852;2022-11-20T00:58:52;0.50;;;0.50;;
8488;SDS011;4281;45.772;12.852;2022-11-20T01:01:20;0.50;;;0.50;;
8488;SDS011;4281;45.772;12.852;2022-11-20T01:03:51;0.63;;;0.63;;
8488;SDS011;4281;45.772;12.852;2022-11-20T01:06:20;0.60;;;0.60;;
8488;SDS011;4281;45.772;12.852;2022-11-20T01:08:50;0.50;;;0.50;;
8488;SDS011;4281;45.772;12.852;2022-11-20T01:11:18;0.40;;;0.40;;
8488;SDS011;4281;45.772;12.852;2022-11-20T01:13:48;0.50;;;0.50;;
8488;SDS011;4281;45.772;12.852;2022-11-20T01:16:17;0.43;;;0.43;;
8488;SDS011;4281;45.772;12.852;2022-11-20T01:18:46;0.50;;;0.50;;
8488;SDS011;4281;45.772;12.852;2022-11-20T01:21:15;0.60;;;0.60;;
8488;SDS011;4281;45.772;12.852;2022-11-20T01:23:44;0.50;;;0.50;;
8488;SDS011;4281;45.772;12.852;2022-11-20T01:26:15;0.60;;;0.60;;
8488;SDS011;4281;45.772;12.852;2022-11-20T01:28:44;0.53;;;0.50;;
8488;SDS011;4281;45.772;12.852;2022-11-20T01:31:13;0.50;;;0.50;;
8488;SDS011;4281;45.772;12.852;2022-11-20T01:33:42;0.53;;;0.53;;
8488;SDS011;4281;45.772;12.852;2022-11-20T01:36:10;0.40;;;0.40;;
8488;SDS011;4281;45.772;12.852;2022-11-20T01:38:39;1.03;;;0.60;;
8488;SDS011;4281;45.772;12.852;2022-11-20T01:41:07;0.57;;;0.57;;
8488;SDS011;4281;45.772;12.852;2022-11-20T01:43:37;0.50;;;0.50;;
8488;SDS011;4281;45.772;12.852;2022-11-20T01:46:14;0.60;;;0.60;;
8488;SDS011;4281;45.772;12.852;2022-11-20T01:48:45;0.40;;;0.40;;
8488;SDS011;4281;45.772;12.852;2022-11-20T01:51:19;0.40;;;0.40;;
8488;SDS011;4281;45.772;12.852;2022-11-20T01:53:49;0.40;;;0.40;;
8488;SDS011;4281;45.772;12.852;2022-11-20T01:56:18;0.50;;;0.47;;
8488;SDS011;4281;45.772;12.852;2022-11-20T01:58:48;0.40;;;0.37;;
8488;SDS011;4281;45.772;12.852;2022-11-20T02:01:17;0.30;;;0.30;;
8488;SDS011;4281;45.772;12.852;2022-11-20T02:03:46;0.33;;;0.33;;
8488;SDS011;4281;45.772;12.852;2022-11-20T02:06:15;0.30;;;0.30;;
8488;SDS011;4281;45.772;12.852;2022-11-20T02:08:45;0.57;;;0.30;;
8488;SDS011;4281;45.772;12.852;2022-11-20T02:11:13;0.23;;;0.23;;
8488;SDS011;4281;45.772;12.852;2022-11-20T02:13:40;0.20;;;0.20;;
8488;SDS011;4281;45.772;12.852;2022-11-20T02:16:19;0.30;;;0.20;;
8488;SDS011;4281;45.772;12.852;2022-11-20T02:18:49;0.60;;;0.30;;
8488;SDS011;4281;45.772;12.852;2022-11-20T02:21:22;0.30;;;0.30;;
8488;SDS011;4281;45.772;12.852;2022-11-20T02:24:01;0.50;;;0.23;;
8488;SDS011;4281;45.772;12.852;2022-11-20T02:26:30;0.30;;;0.30;;
8488;SDS011;4281;45.772;12.852;2022-11-20T02:29:00;0.40;;;0.40;;
8488;SDS011;4281;45.772;12.852;2022-11-20T02:31:28;0.40;;;0.40;;
8488;SDS011;4281;45.772;12.852;2022-11-20T02:33:55;0.30;;;0.30;;
8488;SDS011;4281;45.772;12.852;2022-11-20T02:36:24;0.30;;;0.30;;
8488;SDS011;4281;45.772;12.852;2022-11-20T02:38:53;1.03;;;0.30;;
8488;SDS011;4281;45.772;12.852;2022-11-20T02:41:29;0.37;;;0.37;;
8488;SDS011;4281;45.772;12.852;2022-11-20T02:43:58;0.20;;;0.20;;
8488;SDS011;4281;45.772;12.852;2022-11-20T02:46:25;0.77;;;0.30;;
8488;SDS011;4281;45.772;12.852;2022-11-20T02:48:53;0.30;;;0.30;;
8488;SDS011;4281;45.772;12.852;2022-11-20T02:51:21;0.40;;;0.40;;
8488;SDS011;4281;45.772;12.852;2022-11-20T02:53:49;0.40;;;0.40;;
8488;SDS011;4281;45.772;12.852;2022-11-20T02:56:17;0.87;;;0.40;;
8488;SDS011;4281;45.772;12.852;2022-11-20T02:58:46;0.30;;;0.30;;
8488;SDS011;4281;45.772;12.852;2022-11-20T03:01:13;0.47;;;0.47;;
8488;SDS011;4281;45.772;12.852;2022-11-20T03:03:41;0.30;;;0.30;;
8488;SDS011;4281;45.772;12.852;2022-11-20T03:06:09;0.43;;;0.40;;
8488;SDS011;4281;45.772;12.852;2022-11-20T03:08:37;0.50;;;0.47;;
8488;SDS011;4281;45.772;12.852;2022-11-20T03:11:05;0.40;;;0.40;;
8488;SDS011;4281;45.772;12.852;2022-11-20T03:13:34;0.30;;;0.30;;
8488;SDS011;4281;45.772;12.852;2022-11-20T03:16:07;0.20;;;0.20;;
8488;SDS011;4281;45.772;12.852;2022-11-20T03:18:36;0.37;;;0.37;;
8488;SDS011;4281;45.772;12.852;2022-11-20T03:21:04;0.40;;;0.40;;
8488;SDS011;4281;45.772;12.852;2022-11-20T03:23:32;0.40;;;0.40;;
8488;SDS011;4281;45.772;12.852;2022-11-20T03:26:08;0.40;;;0.40;;
8488;SDS011;4281;45.772;12.852;2022-11-20T03:28:36;0.40;;;0.40;;
8488;SDS011;4281;45.772;12.852;2022-11-20T03:31:05;0.60;;;0.40;;
8488;SDS011;4281;45.772;12.852;2022-11-20T03:33:35;0.40;;;0.40;;
8488;SDS011;4281;45.772;12.852;2022-11-20T03:36:03;0.40;;;0.40;;
8488;SDS011;4281;45.772;12.852;2022-11-20T03:38:32;0.33;;;0.30;;
8488;SDS011;4281;45.772;12.852;2022-11-20T03:41:00;0.50;;;0.30;;
8488;SDS011;4281;45.772;12.852;2022-11-20T03:43:29;0.40;;;0.30;;
8488;SDS011;4281;45.772;12.852;2022-11-20T03:45:57;0.40;;;0.40;;
8488;SDS011;4281;45.772;12.852;2022-11-20T03:48:26;0.30;;;0.30;;
8488;SDS011;4281;45.772;12.852;2022-11-20T03:51:05;0.30;;;0.30;;
8488;SDS011;4281;45.772;12.852;2022-11-20T03:53:34;0.33;;;0.33;;
8488;SDS011;4281;45.772;12.852;2022-11-20T03:56:02;0.40;;;0.40;;
8488;SDS011;4281;45.772;12.852;2022-11-20T03:58:30;0.40;;;0.40;;
8488;SDS011;4281;45.772;12.852;2022-11-20T04:00:58;0.50;;;0.50;;
8488;SDS011;4281;45.772;12.852;2022-11-20T04:06:08;0.53;;;0.50;;
8488;SDS011;4281;45.772;12.852;2022-11-20T04:08:37;0.53;;;0.53;;
8488;SDS011;4281;45.772;12.852;2022-11-20T04:11:11;0.93;;;0.50;;
8488;SDS011;4281;45.772;12.852;2022-11-20T04:13:40;0.40;;;0.40;;
8488;SDS011;4281;45.772;12.852;2022-11-20T04:16:09;0.40;;;0.40;;
8488;SDS011;4281;45.772;12.852;2022-11-20T04:18:37;0.77;;;0.53;;
8488;SDS011;4281;45.772;12.852;2022-11-20T04:21:05;0.50;;;0.50;;
8488;SDS011;4281;45.772;12.852;2022-11-20T04:23:34;0.70;;;0.50;;
8488;SDS011;4281;45.772;12.852;2022-11-20T04:26:03;0.40;;;0.40;;
8488;SDS011;4281;45.772;12.852;2022-11-20T04:28:31;1.70;;;0.40;;
8488;SDS011;4281;45.772;12.852;2022-11-20T04:31:05;0.60;;;0.60;;
8488;SDS011;4281;45.772;12.852;2022-11-20T04:33:34;0.50;;;0.50;;
8488;SDS011;4281;45.772;12.852;2022-11-20T04:36:02;0.37;;;0.37;;
8488;SDS011;4281;45.772;12.852;2022-11-20T04:38:31;0.57;;;0.57;;
8488;SDS011;4281;45.772;12.852;2022-11-20T04:41:00;0.40;;;0.40;;
8488;SDS011;4281;45.772;12.852;2022-11-20T04:43:29;0.40;;;0.40;;
8488;SDS011;4281;45.772;12.852;2022-11-20T04:45:58;0.40;;;0.40;;
8488;SDS011;4281;45.772;12.852;2022-11-20T04:48:27;0.40;;;0.40;;
8488;SDS011;4281;45.772;12.852;2022-11-20T04:50:56;0.30;;;0.30;;
8488;SDS011;4281;45.772;12.852;2022-11-20T04:53:24;0.63;;;0.40;;
8488;SDS011;4281;45.772;12.852;2022-11-20T04:55:51;0.40;;;0.40;;
8488;SDS011;4281;45.772;12.852;2022-11-20T04:58:20;0.87;;;0.60;;
8488;SDS011;4281;45.772;12.852;2022-11-20T05:00:49;0.40;;;0.40;;
8488;SDS011;4281;45.772;12.852;2022-11-20T05:03:17;0.50;;;0.40;;
8488;SDS011;4281;45.772;12.852;2022-11-20T05:05:45;0.40;;;0.40;;
8488;SDS011;4281;45.772;12.852;2022-11-20T05:08:13;0.60;;;0.60;;
8488;SDS011;4281;45.772;12.852;2022-11-20T05:10:41;0.47;;;0.47;;
8488;SDS011;4281;45.772;12.852;2022-11-20T05:13:08;1.17;;;0.40;;
8488;SDS011;4281;45.772;12.852;2022-11-20T05:15:37;0.60;;;0.60;;
8488;SDS011;4281;45.772;12.852;2022-11-20T05:18:05;0.50;;;0.50;;
8488;SDS011;4281;45.772;12.852;2022-11-20T05:20:33;0.60;;;0.50;;
8488;SDS011;4281;45.772;12.852;2022-11-20T05:23:02;0.47;;;0.47;;
8488;SDS011;4281;45.772;12.852;2022-11-20T05:25:30;0.50;;;0.50;;
8488;SDS011;4281;45.772;12.852;2022-11-20T05:27:57;0.50;;;0.50;;
8488;SDS011;4281;45.772;12.852;2022-11-20T05:30:25;0.60;;;0.60;;
8488;SDS011;4281;45.772;12.852;2022-11-20T05:32:54;0.60;;;0.60;;
8488;SDS011;4281;45.772;12.852;2022-11-20T05:35:22;0.73;;;0.53;;
8488;SDS011;4281;45.772;12.852;2022-11-20T05:37:49;0.70;;;0.70;;
8488;SDS011;4281;45.772;12.852;2022-11-20T05:40:17;0.87;;;0.87;;
8488;SDS011;4281;45.772;12.852;2022-11-20T05:42:45;0.77;;;0.70;;
8488;SDS011;4281;45.772;12.852;2022-11-20T05:45:12;0.70;;;0.70;;
8488;SDS011;4281;45.772;12.852;2022-11-20T05:47:40;0.60;;;0.60;;
8488;SDS011;4281;45.772;12.852;2022-11-20T05:50:09;0.80;;;0.80;;
8488;SDS011;4281;45.772;12.852;2022-11-20T05:52:37;0.70;;;0.70;;
8488;SDS011;4281;45.772;12.852;2022-11-20T05:55:05;0.70;;;0.70;;
8488;SDS011;4281;45.772;12.852;2022-11-20T05:57:33;0.60;;;0.60;;
8488;SDS011;4281;45.772;12.852;2022-11-20T06:00:01;0.60;;;0.60;;
8488;SDS011;4281;45.772;12.852;2022-11-20T06:02:29;0.40;;;0.40;;
8488;SDS011;4281;45.772;12.852;2022-11-20T06:04:56;0.60;;;0.60;;
8488;SDS011;4281;45.772;12.852;2022-11-20T06:07:25;0.83;;;0.70;;
8488;SDS011;4281;45.772;12.852;2022-11-20T06:09:53;0.77;;;0.70;;
8488;SDS011;4281;45.772;12.852;2022-11-20T06:12:21;0.70;;;0.70;;
8488;SDS011;4281;45.772;12.852;2022-11-20T06:14:49;1.33;;;0.60;;
8488;SDS011;4281;45.772;12.852;2022-11-20T06:17:16;0.60;;;0.60;;
8488;SDS011;4281;45.772;12.852;2022-11-20T06:19:44;0.73;;;0.60;;
8488;SDS011;4281;45.772;12.852;2022-11-20T06:22:12;0.80;;;0.77;;
8488;SDS011;4281;45.772;12.852;2022-11-20T06:24:41;0.90;;;0.70;;
8488;SDS011;4281;45.772;12.852;2022-11-20T06:27:08;0.80;;;0.80;;
8488;SDS011;4281;45.772;12.852;2022-11-20T06:29:36;0.93;;;0.90;;
8488;SDS011;4281;45.772;12.852;2022-11-20T06:32:04;3.50;;;3.10;;
8488;SDS011;4281;45.772;12.852;2022-11-20T06:34:31;3.30;;;3.00;;
8488;SDS011;4281;45.772;12.852;2022-11-20T06:36:59;5.73;;;4.53;;
8488;SDS011;4281;45.772;12.852;2022-11-20T06:39:27;4.50;;;4.10;;
8488;SDS011;4281;45.772;12.852;2022-11-20T06:41:56;3.50;;;3.13;;
8488;SDS011;4281;45.772;12.852;2022-11-20T06:44:24;2.63;;;2.40;;
8488;SDS011;4281;45.772;12.852;2022-11-20T06:46:52;2.83;;;2.37;;
8488;SDS011;4281;45.772;12.852;2022-11-20T06:49:20;3.03;;;2.20;;
8488;SDS011;4281;45.772;12.852;2022-11-20T06:51:48;2.10;;;1.90;;
8488;SDS011;4281;45.772;12.852;2022-11-20T06:54:16;1.77;;;1.60;;
8488;SDS011;4281;45.772;12.852;2022-11-20T06:56:46;2.23;;;1.40;;
8488;SDS011;4281;45.772;12.852;2022-11-20T06:59:15;1.60;;;1.37;;
8488;SDS011;4281;45.772;12.852;2022-11-20T07:01:43;1.70;;;1.47;;
8488;SDS011;4281;45.772;12.852;2022-11-20T07:04:10;1.97;;;1.50;;
8488;SDS011;4281;45.772;12.852;2022-11-20T07:06:38;1.67;;;1.57;;
8488;SDS011;4281;45.772;12.852;2022-11-20T07:09:06;3.10;;;2.80;;
8488;SDS011;4281;45.772;12.852;2022-11-20T07:11:38;4.57;;;4.00;;
8488;SDS011;4281;45.772;12.852;2022-11-20T07:14:05;4.13;;;3.70;;
8488;SDS011;4281;45.772;12.852;2022-11-20T07:16:34;3.83;;;3.40;;
8488;SDS011;4281;45.772;12.852;2022-11-20T07:19:02;3.30;;;3.00;;
8488;SDS011;4281;45.772;12.852;2022-11-20T07:21:30;3.10;;;2.80;;
8488;SDS011;4281;45.772;12.852;2022-11-20T07:23:57;3.43;;;2.30;;
8488;SDS011;4281;45.772;12.852;2022-11-20T07:26:25;2.50;;;2.20;;
8488;SDS011;4281;45.772;12.852;2022-11-20T07:28:53;2.73;;;2.23;;
8488;SDS011;4281;45.772;12.852;2022-11-20T07:31:21;2.00;;;1.80;;
8488;SDS011;4281;45.772;12.852;2022-11-20T07:33:50;1.80;;;1.70;;
8488;SDS011;4281;45.772;12.852;2022-11-20T07:36:18;2.27;;;1.97;;
8488;SDS011;4281;45.772;12.852;2022-11-20T07:38:45;2.37;;;2.17;;
8488;SDS011;4281;45.772;12.852;2022-11-20T07:41:13;2.20;;;2.00;;
8488;SDS011;4281;45.772;12.852;2022-11-20T07:43:42;2.30;;;2.10;;
8488;SDS011;4281;45.772;12.852;2022-11-20T07:46:09;2.50;;;2.00;;
8488;SDS011;4281;45.772;12.852;2022-11-20T07:48:37;2.60;;;2.40;;
8488;SDS011;4281;45.772;12.852;2022-11-20T07:51:06;2.37;;;2.10;;
8488;SDS011;4281;45.772;12.852;2022-11-20T07:53:34;2.57;;;2.20;;
8488;SDS011;4281;45.772;12.852;2022-11-20T07:56:02;2.53;;;2.20;;
8488;SDS011;4281;45.772;12.852;2022-11-20T07:58:30;2.20;;;2.00;;
8488;SDS011;4281;45.772;12.852;2022-11-20T08:01:01;2.83;;;2.30;;
8488;SDS011;4281;45.772;12.852;2022-11-20T08:03:30;2.40;;;2.20;;
8488;SDS011;4281;45.772;12.852;2022-11-20T08:05:58;2.17;;;1.97;;
8488;SDS011;4281;45.772;12.852;2022-11-20T08:08:27;2.57;;;2.37;;
8488;SDS011;4281;45.772;12.852;2022-11-20T08:10:59;2.70;;;2.50;;
8488;SDS011;4281;45.772;12.852;2022-11-20T08:13:40;3.23;;;2.93;;
8488;SDS011;4281;45.772;12.852;2022-11-20T08:16:25;3.23;;;2.93;;
8488;SDS011;4281;45.772;12.852;2022-11-20T08:18:53;3.17;;;2.93;;
8488;SDS011;4281;45.772;12.852;2022-11-20T08:21:21;3.13;;;2.93;;
8488;SDS011;4281;45.772;12.852;2022-11-20T08:23:50;3.60;;;3.30;;
8488;SDS011;4281;45.772;12.852;2022-11-20T08:26:18;3.50;;;3.20;;
8488;SDS011;4281;45.772;12.852;2022-11-20T08:28:45;3.37;;;3.07;;
8488;SDS011;4281;45.772;12.852;2022-11-20T08:31:13;3.10;;;2.80;;
8488;SDS011;4281;45.772;12.852;2022-11-20T08:33:41;3.00;;;2.70;;
8488;SDS011;4281;45.772;12.852;2022-11-20T08:36:08;2.70;;;2.50;;
8488;SDS011;4281;45.772;12.852;2022-11-20T08:38:36;4.03;;;3.07;;
8488;SDS011;4281;45.772;12.852;2022-11-20T08:41:05;4.47;;;3.00;;
8488;SDS011;4281;45.772;12.852;2022-11-20T08:43:53;2.93;;;2.73;;
8488;SDS011;4281;45.772;12.852;2022-11-20T08:46:22;3.40;;;3.10;;
8488;SDS011;4281;45.772;12.852;2022-11-20T08:48:51;3.40;;;3.10;;
8488;SDS011;4281;45.772;12.852;2022-11-20T08:51:19;3.00;;;2.73;;
8488;SDS011;4281;45.772;12.852;2022-11-20T08:53:47;3.13;;;2.83;;
8488;SDS011;4281;45.772;12.852;2022-11-20T08:56:17;3.13;;;2.83;;
8488;SDS011;4281;45.772;12.852;2022-11-20T08:58:44;2.70;;;2.43;;
8488;SDS011;4281;45.772;12.852;2022-11-20T09:01:32;3.00;;;2.80;;
8488;SDS011;4281;45.772;12.852;2022-11-20T09:06:43;2.97;;;2.77;;
8488;SDS011;4281;45.772;12.852;2022-11-20T09:09:11;2.83;;;2.63;;
8488;SDS011;4281;45.772;12.852;2022-11-20T09:11:40;3.50;;;3.20;;
8488;SDS011;4281;45.772;12.852;2022-11-20T09:14:08;3.57;;;3.27;;
8488;SDS011;4281;45.772;12.852;2022-11-20T09:16:35;3.17;;;2.87;;
8488;SDS011;4281;45.772;12.852;2022-11-20T09:19:03;4.67;;;3.23;;
8488;SDS011;4281;45.772;12.852;2022-11-20T09:21:51;3.73;;;3.10;;
8488;SDS011;4281;45.772;12.852;2022-11-20T09:24:25;4.83;;;3.70;;
8488;SDS011;4281;45.772;12.852;2022-11-20T09:26:54;3.47;;;3.17;;
8488;SDS011;4281;45.772;12.852;2022-11-20T09:29:21;3.03;;;2.73;;
8488;SDS011;4281;45.772;12.852;2022-11-20T09:31:49;3.00;;;2.80;;
8488;SDS011;4281;45.772;12.852;2022-11-20T09:34:17;2.87;;;2.67;;
8488;SDS011;4281;45.772;12.852;2022-11-20T09:36:45;3.03;;;2.73;;
8488;SDS011;4281;45.772;12.852;2022-11-20T09:39:12;3.53;;;3.00;;
8488;SDS011;4281;45.772;12.852;2022-11-20T09:41:58;3.00;;;2.80;;
8488;SDS011;4281;45.772;12.852;2022-11-20T09:44:47;3.00;;;2.70;;
8488;SDS011;4281;45.772;12.852;2022-11-20T09:47:22;2.70;;;2.50;;
8488;SDS011;4281;45.772;12.852;2022-11-20T09:49:58;3.33;;;2.70;;
8488;SDS011;4281;45.772;12.852;2022-11-20T09:52:31;3.13;;;2.80;;
8488;SDS011;4281;45.772;12.852;2022-11-20T09:55:01;3.27;;;2.73;;
8488;SDS011;4281;45.772;12.852;2022-11-20T09:57:33;2.80;;;2.60;;
8488;SDS011;4281;45.772;12.852;2022-11-20T10:00:05;3.43;;;2.87;;
8488;SDS011;4281;45.772;12.852;2022-11-20T10:02:35;2.80;;;2.60;;
8488;SDS011;4281;45.772;12.852;2022-11-20T10:05:06;3.30;;;3.00;;
8488;SDS011;4281;45.772;12.852;2022-11-20T10:07:40;3.23;;;2.93;;
8488;SDS011;4281;45.772;12.852;2022-11-20T10:10:14;2.87;;;2.67;;
8488;SDS011;4281;45.772;12.852;2022-11-20T10:12:49;2.83;;;2.63;;
8488;SDS011;4281;45.772;12.852;2022-11-20T10:15:26;2.37;;;2.10;;
8488;SDS011;4281;45.772;12.852;2022-11-20T10:18:07;2.40;;;2.20;;
8488;SDS011;4281;45.772;12.852;2022-11-20T10:20:40;2.50;;;2.30;;
8488;SDS011;4281;45.772;12.852;2022-11-20T10:23:16;2.03;;;1.83;;
8488;SDS011;4281;45.772;12.852;2022-11-20T10:26:05;2.03;;;1.83;;
8488;SDS011;4281;45.772;12.852;2022-11-20T10:28:48;2.17;;;1.97;;
8488;SDS011;4281;45.772;12.852;2022-11-20T10:31:28;2.53;;;2.07;;
8488;SDS011;4281;45.772;12.852;2022-11-20T10:33:59;2.57;;;1.93;;
8488;SDS011;4281;45.772;12.852;2022-11-20T10:36:38;2.10;;;1.87;;
8488;SDS011;4281;45.772;12.852;2022-11-20T10:39:11;2.03;;;1.90;;
8488;SDS011;4281;45.772;12.852;2022-11-20T10:41:44;2.57;;;2.37;;
8488;SDS011;4281;45.772;12.852;2022-11-20T10:44:17;1.63;;;1.53;;
8488;SDS011;4281;45.772;12.852;2022-11-20T10:47:11;1.70;;;1.60;;
8488;SDS011;4281;45.772;12.852;2022-11-20T10:49:40;1.63;;;1.53;;
8488;SDS011;4281;45.772;12.852;2022-11-20T10:52:10;1.80;;;1.47;;
8488;SDS011;4281;45.772;12.852;2022-11-20T10:54:42;1.50;;;1.40;;
8488;SDS011;4281;45.772;12.852;2022-11-20T10:57:21;1.50;;;1.40;;
8488;SDS011;4281;45.772;12.852;2022-11-20T11:00:04;1.60;;;1.50;;
8488;SDS011;4281;45.772;12.852;2022-11-20T11:02:34;1.60;;;1.50;;
8488;SDS011;4281;45.772;12.852;2022-11-20T11:05:06;1.70;;;1.30;;
8488;SDS011;4281;45.772;12.852;2022-11-20T11:07:40;1.60;;;1.50;;
8488;SDS011;4281;45.772;12.852;2022-11-20T11:10:13;1.50;;;1.40;;
8488;SDS011;4281;45.772;12.852;2022-11-20T11:12:43;2.23;;;1.77;;
8488;SDS011;4281;45.772;12.852;2022-11-20T11:15:24;2.10;;;1.90;;
8488;SDS011;4281;45.772;12.852;2022-11-20T11:17:53;1.50;;;1.40;;
8488;SDS011;4281;45.772;12.852;2022-11-20T11:20:21;1.50;;;1.40;;
8488;SDS011;4281;45.772;12.852;2022-11-20T11:22:50;1.60;;;1.50;;
8488;SDS011;4281;45.772;12.852;2022-11-20T11:25:19;1.50;;;1.40;;
8488;SDS011;4281;45.772;12.852;2022-11-20T11:27:49;1.40;;;1.30;;
8488;SDS011;4281;45.772;12.852;2022-11-20T11:30:19;1.63;;;1.43;;
8488;SDS011;4281;45.772;12.852;2022-11-20T11:32:48;1.60;;;1.50;;
8488;SDS011;4281;45.772;12.852;2022-11-20T11:35:20;1.43;;;1.33;;
8488;SDS011;4281;45.772;12.852;2022-11-20T11:37:49;1.47;;;1.37;;
8488;SDS011;4281;45.772;12.852;2022-11-20T11:40:20;1.13;;;1.03;;
8488;SDS011;4281;45.772;12.852;2022-11-20T11:42:52;1.47;;;1.37;;
8488;SDS011;4281;45.772;12.852;2022-11-20T11:45:23;1.43;;;1.33;;
8488;SDS011;4281;45.772;12.852;2022-11-20T11:47:50;1.53;;;1.40;;
8488;SDS011;4281;45.772;12.852;2022-11-20T11:50:20;1.40;;;1.30;;
8488;SDS011;4281;45.772;12.852;2022-11-20T11:52:51;1.50;;;1.40;;
8488;SDS011;4281;45.772;12.852;2022-11-20T11:55:26;1.50;;;1.40;;
8488;SDS011;4281;45.772;12.852;2022-11-20T11:57:59;1.20;;;1.10;;
8488;SDS011;4281;45.772;12.852;2022-11-20T12:00:35;1.13;;;0.93;;
8488;SDS011;4281;45.772;12.852;2022-11-20T12:03:06;1.10;;;0.90;;
8488;SDS011;4281;45.772;12.852;2022-11-20T12:05:39;0.80;;;0.80;;
8488;SDS011;4281;45.772;12.852;2022-11-20T12:08:12;1.00;;;1.00;;
8488;SDS011;4281;45.772;12.852;2022-11-20T12:10:45;0.90;;;0.90;;
8488;SDS011;4281;45.772;12.852;2022-11-20T12:13:17;1.20;;;1.10;;
8488;SDS011;4281;45.772;12.852;2022-11-20T12:15:50;1.17;;;1.07;;
8488;SDS011;4281;45.772;12.852;2022-11-20T12:18:18;0.93;;;0.90;;
8488;SDS011;4281;45.772;12.852;2022-11-20T12:20:50;1.40;;;1.30;;
8488;SDS011;4281;45.772;12.852;2022-11-20T12:23:25;1.10;;;1.03;;
8488;SDS011;4281;45.772;12.852;2022-11-20T12:25:56;1.20;;;1.10;;
8488;SDS011;4281;45.772;12.852;2022-11-20T12:28:32;1.20;;;1.10;;
8488;SDS011;4281;45.772;12.852;2022-11-20T12:31:13;1.20;;;1.10;;
8488;SDS011;4281;45.772;12.852;2022-11-20T12:34:00;1.20;;;1.10;;
8488;SDS011;4281;45.772;12.852;2022-11-20T12:36:37;1.97;;;1.20;;
8488;SDS011;4281;45.772;12.852;2022-11-20T12:39:13;1.33;;;1.13;;
8488;SDS011;4281;45.772;12.852;2022-11-20T12:42:05;2.10;;;1.30;;
8488;SDS011;4281;45.772;12.852;2022-11-20T12:45:04;1.40;;;1.30;;
8488;SDS011;4281;45.772;12.852;2022-11-20T12:47:46;1.50;;;1.40;;
8488;SDS011;4281;45.772;12.852;2022-11-20T12:50:22;1.40;;;1.30;;
8488;SDS011;4281;45.772;12.852;2022-11-20T12:52:53;1.63;;;1.37;;
8488;SDS011;4281;45.772;12.852;2022-11-20T12:55:25;1.40;;;1.30;;
8488;SDS011;4281;45.772;12.852;2022-11-20T12:57:58;1.27;;;1.17;;
8488;SDS011;4281;45.772;12.852;2022-11-20T13:00:30;1.40;;;1.20;;
8488;SDS011;4281;45.772;12.852;2022-11-20T13:03:06;1.20;;;1.10;;
8488;SDS011;4281;45.772;12.852;2022-11-20T13:05:43;1.47;;;1.30;;
8488;SDS011;4281;45.772;12.852;2022-11-20T13:08:20;1.27;;;1.17;;
8488;SDS011;4281;45.772;12.852;2022-11-20T13:10:49;1.40;;;1.20;;
8488;SDS011;4281;45.772;12.852;2022-11-20T13:13:23;1.20;;;1.10;;
8488;SDS011;4281;45.772;12.852;2022-11-20T13:15:54;1.30;;;1.10;;
8488;SDS011;4281;45.772;12.852;2022-11-20T13:18:24;1.20;;;1.10;;
8488;SDS011;4281;45.772;12.852;2022-11-20T13:20:52;1.30;;;1.20;;
8488;SDS011;4281;45.772;12.852;2022-11-20T13:23:24;1.67;;;1.57;;
8488;SDS011;4281;45.772;12.852;2022-11-20T13:26:02;1.57;;;1.47;;
8488;SDS011;4281;45.772;12.852;2022-11-20T13:28:32;1.30;;;1.20;;
8488;SDS011;4281;45.772;12.852;2022-11-20T13:31:00;1.47;;;1.30;;
8488;SDS011;4281;45.772;12.852;2022-11-20T13:33:30;1.80;;;1.50;;
8488;SDS011;4281;45.772;12.852;2022-11-20T13:35:59;1.50;;;1.40;;
8488;SDS011;4281;45.772;12.852;2022-11-20T13:38:27;1.50;;;1.40;;
8488;SDS011;4281;45.772;12.852;2022-11-20T13:40:59;1.40;;;1.30;;
8488;SDS011;4281;45.772;12.852;2022-11-20T13:43:48;1.43;;;1.10;;
8488;SDS011;4281;45.772;12.852;2022-11-20T13:46:16;1.30;;;1.20;;
8488;SDS011;4281;45.772;12.852;2022-11-20T13:48:51;1.20;;;1.10;;
8488;SDS011;4281;45.772;12.852;2022-11-20T13:51:24;1.20;;;1.10;;
8488;SDS011;4281;45.772;12.852;2022-11-20T13:57:04;1.40;;;1.30;;
8488;SDS011;4281;45.772;12.852;2022-11-20T13:59:40;1.30;;;1.20;;
8488;SDS011;4281;45.772;12.852;2022-11-20T14:02:14;1.17;;;1.07;;
8488;SDS011;4281;45.772;12.852;2022-11-20T14:07:24;1.30;;;1.20;;
8488;SDS011;4281;45.772;12.852;2022-11-20T14:09:54;1.40;;;1.30;;
8488;SDS011;4281;45.772;12.852;2022-11-20T14:12:27;1.40;;;1.30;;
8488;SDS011;4281;45.772;12.852;2022-11-20T14:14:56;1.37;;;1.20;;
8488;SDS011;4281;45.772;12.852;2022-11-20T14:17:28;1.20;;;1.10;;
8488;SDS011;4281;45.772;12.852;2022-11-20T14:19:58;1.43;;;1.10;;
8488;SDS011;4281;45.772;12.852;2022-11-20T14:22:30;1.23;;;1.13;;
8488;SDS011;4281;45.772;12.852;2022-11-20T14:25:02;1.30;;;1.20;;
8488;SDS011;4281;45.772;12.852;2022-11-20T14:27:32;1.20;;;1.10;;
8488;SDS011;4281;45.772;12.852;2022-11-20T14:30:01;1.03;;;0.90;;
8488;SDS011;4281;45.772;12.852;2022-11-20T14:32:30;1.43;;;1.30;;
8488;SDS011;4281;45.772;12.852;2022-11-20T14:34:59;1.60;;;1.50;;
8488;SDS011;4281;45.772;12.852;2022-11-20T14:37:32;2.00;;;1.37;;
8488;SDS011;4281;45.772;12.852;2022-11-20T14:40:01;1.60;;;1.43;;
8488;SDS011;4281;45.772;12.852;2022-11-20T14:42:29;1.57;;;1.40;;
8488;SDS011;4281;45.772;12.852;2022-11-20T14:44:58;1.30;;;1.20;;
8488;SDS011;4281;45.772;12.852;2022-11-20T14:47:27;1.40;;;1.30;;
8488;SDS011;4281;45.772;12.852;2022-11-20T14:49:56;1.57;;;1.47;;
8488;SDS011;4281;45.772;12.852;2022-11-20T14:52:25;1.97;;;1.60;;
8488;SDS011;4281;45.772;12.852;2022-11-20T14:54:56;1.77;;;1.40;;
8488;SDS011;4281;45.772;12.852;2022-11-20T14:57:26;1.83;;;1.70;;
8488;SDS011;4281;45.772;12.852;2022-11-20T15:00:05;2.00;;;1.80;;
8488;SDS011;4281;45.772;12.852;2022-11-20T15:02:38;1.80;;;1.70;;
8488;SDS011;4281;45.772;12.852;2022-11-20T15:05:06;2.60;;;1.93;;
8488;SDS011;4281;45.772;12.852;2022-11-20T15:07:34;2.57;;;2.00;;
8488;SDS011;4281;45.772;12.852;2022-11-20T15:10:07;2.00;;;1.90;;
8488;SDS011;4281;45.772;12.852;2022-11-20T15:12:36;1.87;;;1.77;;
8488;SDS011;4281;45.772;12.852;2022-11-20T15:15:08;2.10;;;2.00;;
8488;SDS011;4281;45.772;12.852;2022-11-20T15:17:38;2.17;;;1.97;;
8488;SDS011;4281;45.772;12.852;2022-11-20T15:20:09;2.37;;;2.13;;
8488;SDS011;4281;45.772;12.852;2022-11-20T15:22:39;2.70;;;2.13;;
8488;SDS011;4281;45.772;12.852;2022-11-20T15:25:15;2.53;;;2.17;;
8488;SDS011;4281;45.772;12.852;2022-11-20T15:27:44;2.27;;;2.07;;
8488;SDS011;4281;45.772;12.852;2022-11-20T15:30:13;4.47;;;4.07;;
8488;SDS011;4281;45.772;12.852;2022-11-20T15:32:43;4.60;;;4.20;;